createdAt,value
2018-05-10T00:00:48.087Z,3.97
2018-05-10T00:03:16.151Z,4.03
2018-05-10T00:05:44.207Z,4.57
2018-05-10T00:08:12.278Z,3.80
2018-05-10T00:10:40.365Z,4.13
2018-05-10T00:13:09.350Z,4.20
2018-05-10T00:15:37.426Z,4.00
2018-05-10T00:18:05.493Z,4.20
2018-05-10T00:20:33.525Z,4.37
2018-05-10T00:23:01.718Z,3.97
2018-05-10T00:25:29.793Z,4.40
2018-05-10T00:27:58.609Z,3.63
2018-05-10T00:30:26.690Z,4.90
2018-05-10T00:32:55.538Z,5.87
2018-05-10T00:35:23.610Z,3.83
2018-05-10T00:37:51.649Z,4.07
2018-05-10T00:40:19.701Z,4.13
2018-05-10T00:42:48.547Z,6.13
2018-05-10T00:45:16.634Z,3.83
2018-05-10T00:47:44.691Z,3.90
2018-05-10T00:50:12.757Z,4.93
2018-05-10T00:52:40.870Z,4.07
2018-05-10T00:55:08.898Z,4.00
2018-05-10T00:57:36.982Z,5.20
2018-05-10T01:00:05.058Z,6.03
2018-05-10T01:02:33.131Z,4.30
2018-05-10T01:05:01.206Z,6.77
2018-05-10T01:07:29.277Z,5.00
2018-05-10T01:09:57.330Z,10.07
2018-05-10T01:12:25.397Z,4.23
2018-05-10T01:14:53.445Z,3.87
2018-05-10T01:17:21.494Z,5.33
2018-05-10T01:19:49.562Z,4.50
2018-05-10T01:22:17.617Z,4.47
2018-05-10T01:24:45.685Z,3.87
2018-05-10T01:27:13.765Z,6.00
2018-05-10T01:29:41.842Z,4.00
2018-05-10T01:32:09.907Z,4.13
2018-05-10T01:34:37.977Z,3.97
2018-05-10T01:37:06.042Z,3.83
2018-05-10T01:39:34.089Z,5.97
2018-05-10T01:42:02.202Z,3.97
2018-05-10T01:44:30.261Z,3.83
2018-05-10T01:46:58.329Z,4.63
2018-05-10T01:49:26.405Z,4.47
2018-05-10T01:51:54.478Z,4.40
2018-05-10T01:54:22.546Z,4.50
2018-05-10T01:56:50.627Z,4.53
2018-05-10T01:59:24.519Z,4.50
2018-05-10T02:01:52.590Z,4.07
2018-05-10T02:04:20.657Z,4.17
2018-05-10T02:06:48.731Z,3.80
2018-05-10T02:09:21.463Z,6.47
2018-05-10T02:11:49.523Z,4.67
2018-05-10T02:14:17.585Z,3.97
2018-05-10T02:16:49.594Z,6.00
2018-05-10T02:19:17.661Z,4.47
2018-05-10T02:21:45.730Z,4.63
2018-05-10T02:24:13.813Z,5.00
2018-05-10T02:26:41.886Z,4.07
2018-05-10T02:29:09.921Z,5.53
2018-05-10T02:31:37.988Z,5.20
2018-05-10T02:34:06.067Z,5.43
2018-05-10T02:36:34.173Z,5.70
2018-05-10T02:39:02.270Z,5.13
2018-05-10T02:41:30.336Z,4.90
2018-05-10T02:43:58.422Z,5.13
2018-05-10T02:46:26.499Z,4.80
2018-05-10T02:48:59.398Z,3.87
2018-05-10T02:51:27.481Z,4.13
2018-05-10T02:53:55.591Z,4.30
2018-05-10T02:56:23.630Z,5.77
2018-05-10T02:58:51.711Z,5.47
2018-05-10T03:01:23.458Z,5.63
2018-05-10T03:03:51.633Z,5.47
2018-05-10T03:06:19.691Z,4.97
2018-05-10T03:08:48.514Z,5.53
2018-05-10T03:11:17.375Z,4.37
2018-05-10T03:13:46.212Z,5.70
2018-05-10T03:16:14.286Z,4.57
2018-05-10T03:18:42.403Z,4.27
2018-05-10T03:21:10.450Z,4.13
2018-05-10T03:23:38.506Z,5.00
2018-05-10T03:26:06.630Z,4.60
2018-05-10T03:28:34.697Z,4.30
2018-05-10T03:31:02.768Z,4.43
2018-05-10T03:33:30.833Z,3.83
2018-05-10T03:35:58.889Z,3.87
2018-05-10T03:38:26.990Z,4.60
2018-05-10T03:40:55.046Z,5.53
2018-05-10T03:43:23.097Z,5.13
2018-05-10T03:45:51.161Z,4.27
2018-05-10T03:48:19.277Z,7.20
2018-05-10T03:50:47.279Z,3.90
2018-05-10T03:53:16.238Z,6.03
2018-05-10T03:55:44.285Z,4.83
2018-05-10T03:58:12.373Z,5.60
2018-05-10T04:00:40.450Z,4.97
2018-05-10T04:06:19.305Z,4.30
2018-05-10T04:08:59.291Z,4.20
2018-05-10T04:11:27.945Z,4.67
2018-05-10T04:13:56.774Z,4.80
2018-05-10T04:16:24.816Z,6.00
2018-05-10T04:18:52.911Z,4.37
2018-05-10T04:21:21.022Z,6.43
2018-05-10T04:23:49.061Z,5.53
2018-05-10T04:26:17.102Z,4.27
2018-05-10T04:28:45.169Z,4.57
2018-05-10T04:31:13.984Z,4.60
2018-05-10T04:33:42.066Z,5.20
2018-05-10T04:36:10.114Z,4.83
2018-05-10T04:38:38.209Z,5.73
2018-05-10T04:41:06.328Z,4.13
2018-05-10T04:43:34.409Z,4.33
2018-05-10T04:46:02.549Z,5.80
2018-05-10T04:48:30.601Z,5.20
2018-05-10T04:50:58.666Z,4.10
2018-05-10T04:53:26.759Z,4.33
2018-05-10T04:55:54.833Z,4.63
2018-05-10T04:58:22.919Z,4.43
2018-05-10T05:00:50.990Z,4.60
2018-05-10T05:03:19.165Z,4.03
2018-05-10T05:05:47.921Z,4.37
2018-05-10T05:08:15.999Z,4.57
2018-05-10T05:10:44.098Z,4.90
2018-05-10T05:13:12.217Z,4.43
2018-05-10T05:15:40.253Z,4.47
2018-05-10T05:18:09.107Z,4.33
2018-05-10T05:20:37.178Z,5.83
2018-05-10T05:23:05.399Z,5.03
2018-05-10T05:25:33.658Z,4.83
2018-05-10T05:28:01.739Z,6.00
2018-05-10T05:30:30.712Z,5.93
2018-05-10T05:32:58.797Z,7.80
2018-05-10T05:35:27.620Z,6.67
2018-05-10T05:37:55.662Z,5.43
2018-05-10T05:40:24.513Z,5.80
2018-05-10T05:42:52.583Z,5.63
2018-05-10T05:45:20.752Z,3.80
2018-05-10T05:47:48.835Z,4.00
2018-05-10T05:50:16.890Z,4.43
2018-05-10T05:52:44.955Z,4.33
2018-05-10T05:55:13.039Z,5.40
2018-05-10T05:57:41.116Z,6.03
2018-05-10T06:00:09.162Z,4.77
2018-05-10T06:02:37.213Z,5.80
2018-05-10T06:05:05.258Z,3.93
2018-05-10T06:07:33.337Z,5.93
2018-05-10T06:10:02.143Z,5.53
2018-05-10T06:12:30.243Z,6.00
2018-05-10T06:14:58.275Z,5.30
2018-05-10T06:17:27.103Z,5.67
2018-05-10T06:19:56.253Z,6.20
2018-05-10T06:22:24.344Z,7.37
2018-05-10T06:24:52.539Z,6.40
2018-05-10T06:27:20.563Z,5.87
2018-05-10T06:29:48.636Z,6.63
2018-05-10T06:32:16.798Z,5.30
2018-05-10T06:34:44.839Z,5.23
2018-05-10T06:37:12.870Z,6.37
2018-05-10T06:39:40.968Z,6.80
2018-05-10T06:42:08.993Z,6.80
2018-05-10T06:44:37.074Z,5.20
2018-05-10T06:47:05.150Z,6.93
2018-05-10T06:49:33.315Z,6.97
2018-05-10T06:52:02.162Z,8.67
2018-05-10T06:54:30.339Z,8.23
2018-05-10T06:56:58.494Z,7.50
2018-05-10T06:59:26.531Z,7.90
2018-05-10T07:01:54.595Z,8.50
2018-05-10T07:04:23.394Z,7.83
2018-05-10T07:06:51.484Z,9.80
2018-05-10T07:09:19.592Z,12.97
2018-05-10T07:11:47.605Z,12.03
2018-05-10T07:14:15.659Z,11.30
2018-05-10T07:16:43.766Z,19.33
2018-05-10T07:19:11.880Z,22.03
2018-05-10T07:21:39.919Z,18.37
2018-05-10T07:24:08.014Z,18.43
2018-05-10T07:26:36.074Z,18.33
2018-05-10T07:29:04.152Z,20.27
2018-05-10T07:31:34.416Z,19.27
2018-05-10T07:34:03.271Z,20.00
2018-05-10T07:36:37.274Z,28.97
2018-05-10T07:39:05.330Z,41.50
2018-05-10T07:41:33.430Z,43.20
2018-05-10T07:44:03.055Z,46.33
2018-05-10T07:46:33.090Z,44.20
2018-05-10T07:49:01.144Z,48.10
2018-05-10T07:51:39.179Z,50.37
2018-05-10T07:54:07.232Z,46.30
2018-05-10T07:56:36.085Z,43.00
2018-05-10T07:59:04.223Z,51.30
2018-05-10T08:01:33.010Z,47.30
2018-05-10T08:04:04.174Z,56.30
2018-05-10T08:06:32.263Z,48.20
2018-05-10T08:09:00.351Z,44.53
2018-05-10T08:11:28.477Z,50.77
2018-05-10T08:13:57.554Z,50.07
2018-05-10T08:16:25.596Z,52.33
2018-05-10T08:18:53.670Z,49.20
2018-05-10T08:21:37.264Z,49.13
2018-05-10T08:24:05.334Z,44.40
2018-05-10T08:26:33.427Z,45.07
2018-05-10T08:29:01.472Z,43.97
2018-05-10T08:31:29.539Z,46.43
2018-05-10T08:33:57.630Z,44.87
2018-05-10T08:36:25.687Z,46.23
2018-05-10T08:38:53.811Z,46.77
2018-05-10T08:41:22.830Z,38.60
2018-05-10T08:43:50.870Z,43.10
2018-05-10T08:46:20.722Z,39.63
2018-05-10T08:48:48.806Z,40.80
2018-05-10T08:51:16.963Z,39.30
2018-05-10T08:53:45.054Z,38.80
2018-05-10T08:56:13.139Z,37.30
2018-05-10T08:58:41.218Z,38.50
2018-05-10T09:01:09.278Z,37.50
2018-05-10T09:03:37.326Z,37.13
2018-05-10T09:06:05.387Z,34.13
2018-05-10T09:08:35.349Z,28.93
2018-05-10T09:11:03.446Z,33.37
2018-05-10T09:13:32.266Z,34.83
2018-05-10T09:16:00.381Z,32.63
2018-05-10T09:18:28.494Z,33.53
2018-05-10T09:20:57.323Z,30.90
2018-05-10T09:23:25.470Z,30.93
2018-05-10T09:25:53.567Z,30.03
2018-05-10T09:28:25.474Z,31.47
2018-05-10T09:30:54.288Z,30.67
2018-05-10T09:33:22.387Z,29.57
2018-05-10T09:35:50.486Z,31.50
2018-05-10T09:38:18.582Z,29.53
2018-05-10T09:40:47.471Z,39.83
2018-05-10T09:43:16.381Z,35.43
2018-05-10T09:45:44.396Z,30.97
2018-05-10T09:48:12.462Z,29.20
2018-05-10T09:50:40.563Z,25.27
2018-05-10T09:53:08.654Z,25.23
2018-05-10T09:55:37.638Z,24.33
2018-05-10T09:58:06.454Z,20.00
2018-05-10T10:00:43.411Z,23.37
2018-05-10T10:03:18.149Z,19.17
2018-05-10T10:05:46.239Z,22.37
2018-05-10T10:08:14.297Z,20.17
2018-05-10T10:10:49.185Z,19.73
2018-05-10T10:13:17.251Z,25.77
2018-05-10T10:15:45.344Z,21.10
2018-05-10T10:18:15.398Z,20.27
2018-05-10T10:20:43.484Z,21.70
2018-05-10T10:23:11.495Z,23.40
2018-05-10T10:25:39.534Z,22.73
2018-05-10T10:28:07.662Z,22.70
2018-05-10T10:30:36.523Z,25.43
2018-05-10T10:33:05.380Z,24.47
2018-05-10T10:35:33.522Z,18.70
2018-05-10T10:38:01.622Z,21.40
2018-05-10T10:40:29.737Z,21.23
2018-05-10T10:42:57.815Z,20.00
2018-05-10T10:45:25.952Z,20.33
2018-05-10T10:47:54.756Z,18.13
2018-05-10T10:50:33.881Z,17.40
2018-05-10T10:53:02.840Z,18.17
2018-05-10T10:55:30.904Z,16.63
2018-05-10T10:57:58.994Z,14.97
2018-05-10T11:00:27.038Z,14.20
2018-05-10T11:02:55.145Z,14.27
2018-05-10T11:05:23.218Z,15.30
2018-05-10T11:07:57.389Z,14.13
2018-05-10T11:10:26.210Z,14.07
2018-05-10T11:12:54.289Z,17.73
2018-05-10T11:15:22.471Z,16.97
2018-05-10T11:17:50.485Z,16.17
2018-05-10T11:20:19.344Z,15.20
2018-05-10T11:22:47.451Z,12.80
2018-05-10T11:25:16.365Z,13.17
2018-05-10T11:27:44.458Z,11.20
2018-05-10T11:30:12.528Z,11.70
2018-05-10T11:32:40.627Z,9.63
2018-05-10T11:35:08.698Z,8.43
2018-05-10T11:37:36.799Z,8.17
2018-05-10T11:40:05.691Z,7.53
2018-05-10T11:42:39.298Z,8.60
2018-05-10T11:45:07.416Z,7.83
2018-05-10T11:47:35.493Z,9.13
2018-05-10T11:50:03.554Z,9.37
2018-05-10T11:52:31.630Z,8.13
2018-05-10T11:54:59.675Z,10.03
2018-05-10T11:57:27.711Z,9.20
2018-05-10T11:59:56.591Z,8.20
2018-05-10T12:02:24.650Z,8.83
2018-05-10T12:04:52.719Z,9.50
2018-05-10T12:07:20.861Z,11.00
2018-05-10T12:09:48.897Z,9.93
2018-05-10T12:12:17.735Z,9.77
2018-05-10T12:14:45.830Z,13.20
2018-05-10T12:17:13.915Z,12.40
2018-05-10T12:19:42.786Z,13.27
2018-05-10T12:22:10.850Z,12.67
2018-05-10T12:24:38.946Z,14.17
2018-05-10T12:27:07.035Z,14.43
2018-05-10T12:29:35.905Z,12.57
2018-05-10T12:32:03.955Z,15.03
2018-05-10T12:34:32.289Z,12.20
2018-05-10T12:37:00.303Z,12.40
2018-05-10T12:39:28.313Z,11.60
2018-05-10T12:41:56.426Z,11.93
2018-05-10T12:44:30.658Z,13.10
2018-05-10T12:46:58.770Z,13.37
2018-05-10T12:49:27.618Z,11.87
2018-05-10T12:51:55.654Z,17.90
2018-05-10T12:54:23.801Z,14.60
2018-05-10T12:56:52.614Z,15.10
2018-05-10T12:59:20.663Z,16.53
2018-05-10T13:01:51.526Z,17.20
2018-05-10T13:04:19.578Z,16.50
2018-05-10T13:06:47.674Z,13.37
2018-05-10T13:09:15.814Z,14.43
2018-05-10T13:11:43.903Z,16.07
2018-05-10T13:14:12.000Z,20.70
2018-05-10T13:16:40.066Z,16.53
2018-05-10T13:19:08.146Z,16.90
2018-05-10T13:21:36.316Z,17.33
2018-05-10T13:24:04.327Z,17.07
2018-05-10T13:26:32.402Z,17.30
2018-05-10T13:29:10.270Z,14.97
2018-05-10T13:31:38.346Z,19.10
2018-05-10T13:34:06.647Z,19.23
2018-05-10T13:36:34.687Z,20.90
2018-05-10T13:39:02.771Z,21.50
2018-05-10T13:41:30.925Z,25.37
2018-05-10T13:43:58.970Z,23.63
2018-05-10T13:46:33.050Z,25.40
2018-05-10T13:49:01.913Z,22.67
2018-05-10T13:51:30.005Z,26.90
2018-05-10T13:53:58.030Z,26.47
2018-05-10T13:56:26.133Z,22.37
2018-05-10T13:58:54.219Z,21.80
2018-05-10T14:01:24.257Z,27.13
2018-05-10T14:03:52.382Z,24.57
2018-05-10T14:06:20.494Z,26.70
2018-05-10T14:08:48.614Z,27.17
2018-05-10T14:11:17.675Z,25.17
2018-05-10T14:13:45.742Z,21.57
2018-05-10T14:16:14.632Z,19.93
2018-05-10T14:18:42.719Z,23.77
2018-05-10T14:21:10.815Z,18.37
2018-05-10T14:23:38.882Z,18.20
2018-05-10T14:26:06.983Z,17.07
2018-05-10T14:28:37.071Z,15.60
2018-05-10T14:31:05.422Z,14.47
2018-05-10T14:33:33.526Z,12.90
2018-05-10T14:36:01.612Z,12.90
2018-05-10T14:38:29.739Z,10.47
2018-05-10T14:40:57.839Z,10.33
2018-05-10T14:43:25.882Z,9.50
2018-05-10T14:45:53.929Z,7.40
2018-05-10T14:48:21.987Z,4.63
2018-05-10T14:50:50.125Z,5.50
2018-05-10T14:53:30.898Z,5.53
2018-05-10T14:55:58.979Z,4.67
2018-05-10T14:58:27.041Z,6.90
2018-05-10T15:00:55.113Z,4.07
2018-05-10T15:03:23.187Z,4.80
2018-05-10T15:05:51.218Z,6.50
2018-05-10T15:08:19.297Z,5.67
2018-05-10T15:10:47.399Z,5.77
2018-05-10T15:13:15.448Z,6.70
2018-05-10T15:15:43.561Z,6.33
2018-05-10T15:18:11.622Z,7.30
2018-05-10T15:20:39.746Z,5.17
2018-05-10T15:23:08.612Z,8.30
2018-05-10T15:25:36.622Z,6.67
2018-05-10T15:28:04.922Z,7.90
2018-05-10T15:30:33.072Z,4.07
2018-05-10T15:33:01.074Z,7.23
2018-05-10T15:35:29.200Z,5.17
2018-05-10T15:37:58.042Z,10.07
2018-05-10T15:40:26.114Z,9.77
2018-05-10T15:42:54.166Z,8.80
2018-05-10T15:45:22.275Z,13.30
2018-05-10T15:47:54.459Z,11.40
2018-05-10T15:50:23.302Z,13.37
2018-05-10T15:52:51.345Z,15.83
2018-05-10T15:55:19.517Z,18.50
2018-05-10T15:57:47.615Z,15.97
2018-05-10T16:00:15.689Z,12.50
2018-05-10T16:02:43.822Z,15.53
2018-05-10T16:05:11.893Z,16.53
2018-05-10T16:07:39.942Z,14.33
2018-05-10T16:10:08.001Z,12.50
2018-05-10T16:12:36.081Z,15.20
2018-05-10T16:15:04.142Z,15.67
2018-05-10T16:17:32.250Z,15.50
2018-05-10T16:20:08.999Z,16.50
2018-05-10T16:22:37.110Z,20.80
2018-05-10T16:25:05.149Z,18.93
2018-05-10T16:27:34.047Z,15.30
2018-05-10T16:30:02.136Z,15.27
2018-05-10T16:32:30.239Z,18.40
2018-05-10T16:34:58.281Z,15.40
2018-05-10T16:37:26.480Z,12.47
2018-05-10T16:39:54.519Z,13.83
2018-05-10T16:42:22.594Z,16.57
2018-05-10T16:44:50.694Z,14.70
2018-05-10T16:47:18.751Z,17.90
2018-05-10T16:49:46.804Z,13.53
2018-05-10T16:52:15.629Z,13.23
2018-05-10T16:54:43.694Z,13.27
2018-05-10T16:57:11.770Z,15.10
2018-05-10T16:59:39.887Z,15.27
2018-05-10T17:02:07.955Z,11.33
2018-05-10T17:04:36.058Z,17.87
2018-05-10T17:07:04.164Z,16.80
2018-05-10T17:09:32.271Z,15.33
2018-05-10T17:12:00.395Z,15.47
2018-05-10T17:14:28.455Z,14.77
2018-05-10T17:16:56.491Z,11.90
2018-05-10T17:19:25.284Z,9.50
2018-05-10T17:21:54.135Z,15.37
2018-05-10T17:24:22.184Z,11.50
2018-05-10T17:26:50.267Z,15.50
2018-05-10T17:29:18.315Z,16.77
2018-05-10T17:31:46.415Z,9.03
2018-05-10T17:34:14.598Z,10.33
2018-05-10T17:36:42.849Z,13.63
2018-05-10T17:39:10.895Z,16.83
2018-05-10T17:41:39.079Z,12.50
2018-05-10T17:44:07.078Z,9.73
2018-05-10T17:46:35.159Z,15.60
2018-05-10T17:49:03.546Z,13.97
2018-05-10T17:51:31.603Z,15.60
2018-05-10T17:53:59.687Z,14.13
2018-05-10T17:56:27.780Z,9.97
2018-05-10T17:58:55.874Z,14.93
2018-05-10T18:01:27.759Z,13.70
2018-05-10T18:03:56.041Z,13.50
2018-05-10T18:06:24.097Z,17.97
2018-05-10T18:08:52.282Z,12.60
2018-05-10T18:11:20.346Z,12.93
2018-05-10T18:13:48.436Z,13.20
2018-05-10T18:16:17.258Z,11.93
2018-05-10T18:18:50.248Z,13.97
2018-05-10T18:21:18.318Z,12.70
2018-05-10T18:23:46.391Z,16.33
2018-05-10T18:26:14.429Z,13.63
2018-05-10T18:28:42.561Z,18.40
2018-05-10T18:31:14.635Z,14.87
2018-05-10T18:33:42.841Z,14.30
2018-05-10T18:36:10.918Z,16.33
2018-05-10T18:38:38.987Z,20.60
2018-05-10T18:41:07.082Z,13.90
2018-05-10T18:43:35.163Z,14.47
2018-05-10T18:46:03.198Z,11.63
2018-05-10T18:48:31.303Z,14.13
2018-05-10T18:50:59.407Z,15.20
2018-05-10T18:53:27.507Z,15.03
2018-05-10T18:55:55.570Z,12.67
2018-05-10T18:58:23.635Z,15.47
2018-05-10T19:00:52.450Z,17.00
2018-05-10T19:03:20.497Z,18.37
2018-05-10T19:05:48.606Z,19.33
2018-05-10T19:08:16.701Z,18.30
2018-05-10T19:10:45.507Z,14.93
2018-05-10T19:13:13.605Z,14.20
2018-05-10T19:15:41.694Z,10.10
2018-05-10T19:18:09.748Z,16.70
2018-05-10T19:20:37.843Z,12.93
2018-05-10T19:23:05.969Z,11.80
2018-05-10T19:25:34.103Z,11.87
2018-05-10T19:28:02.138Z,14.47
2018-05-10T19:30:38.107Z,13.10
2018-05-10T19:33:06.204Z,15.47
2018-05-10T19:35:34.323Z,12.03
2018-05-10T19:38:02.424Z,12.00
2018-05-10T19:40:34.564Z,9.23
2018-05-10T19:43:02.632Z,14.40
2018-05-10T19:45:30.731Z,11.17
2018-05-10T19:47:58.805Z,13.17
2018-05-10T19:50:26.924Z,11.53
2018-05-10T19:52:55.779Z,12.47
2018-05-10T19:55:23.827Z,9.93
2018-05-10T19:57:57.819Z,13.90
2018-05-10T20:00:25.896Z,15.60
2018-05-10T20:02:53.935Z,11.80
2018-05-10T20:05:22.781Z,14.97
2018-05-10T20:10:47.690Z,13.57
2018-05-10T20:13:15.730Z,15.00
2018-05-10T20:15:44.848Z,12.77
2018-05-10T20:18:12.954Z,17.87
2018-05-10T20:20:41.014Z,14.17
2018-05-10T20:23:09.070Z,16.77
2018-05-10T20:25:37.122Z,17.80
2018-05-10T20:28:05.173Z,14.37
2018-05-10T20:30:34.094Z,15.07
2018-05-10T20:33:02.125Z,15.57
2018-05-10T20:35:30.971Z,16.27
2018-05-10T20:37:59.038Z,15.87
2018-05-10T20:40:27.122Z,18.10
2018-05-10T20:42:55.165Z,20.80
2018-05-10T20:45:23.235Z,17.77
2018-05-10T20:47:51.361Z,18.50
2018-05-10T20:50:19.390Z,20.37
2018-05-10T20:52:47.515Z,16.23
2018-05-10T20:55:16.359Z,21.63
2018-05-10T20:57:44.451Z,16.80
2018-05-10T21:00:12.510Z,14.87
2018-05-10T21:02:40.613Z,16.73
2018-05-10T21:05:09.426Z,19.07
2018-05-10T21:07:37.539Z,18.50
2018-05-10T21:10:05.685Z,23.83
2018-05-10T21:12:40.604Z,23.97
2018-05-10T21:15:08.707Z,25.03
2018-05-10T21:17:36.775Z,28.67
2018-05-10T21:20:04.855Z,21.10
2018-05-10T21:22:32.937Z,19.50
2018-05-10T21:25:01.042Z,16.23
2018-05-10T21:27:29.987Z,22.10
2018-05-10T21:29:59.004Z,19.47
2018-05-10T21:32:27.061Z,19.23
2018-05-10T21:34:55.145Z,20.30
2018-05-10T21:37:23.218Z,20.17
2018-05-10T21:39:51.306Z,18.67
2018-05-10T21:42:19.347Z,22.03
2018-05-10T21:44:47.401Z,22.43
2018-05-10T21:47:21.239Z,21.27
2018-05-10T21:50:01.154Z,22.13
2018-05-10T21:52:29.272Z,17.57
2018-05-10T21:54:57.367Z,19.40
2018-05-10T21:57:25.412Z,20.47
2018-05-10T21:59:53.623Z,19.10
2018-05-10T22:02:22.475Z,17.53
2018-05-10T22:04:50.583Z,19.73
2018-05-10T22:07:18.682Z,23.63
2018-05-10T22:09:46.755Z,20.50
2018-05-10T22:12:14.915Z,16.87
2018-05-10T22:14:43.742Z,20.63
2018-05-10T22:17:12.597Z,21.60
2018-05-10T22:19:42.708Z,19.53
2018-05-10T22:22:10.764Z,22.40
2018-05-10T22:24:38.848Z,20.83
2018-05-10T22:27:07.039Z,20.30
2018-05-10T22:29:35.133Z,20.07
2018-05-10T22:32:03.206Z,18.53
2018-05-10T22:34:31.306Z,21.70
2018-05-10T22:37:00.153Z,22.63
2018-05-10T22:39:28.234Z,20.40
2018-05-10T22:41:56.385Z,17.67
2018-05-10T22:44:28.526Z,21.83
2018-05-10T22:46:56.505Z,23.50
2018-05-10T22:49:24.554Z,24.47
2018-05-10T22:51:52.704Z,21.20
2018-05-10T22:54:20.745Z,21.13
2018-05-10T22:56:48.834Z,25.83
2018-05-10T22:59:16.883Z,21.57
2018-05-10T23:01:45.068Z,20.77
2018-05-10T23:04:13.102Z,23.93
2018-05-10T23:06:41.160Z,20.90
2018-05-10T23:09:09.270Z,18.70
2018-05-10T23:11:37.420Z,22.67
2018-05-10T23:14:05.434Z,19.53
2018-05-10T23:16:33.510Z,21.20
2018-05-10T23:19:02.381Z,23.90
2018-05-10T23:21:30.474Z,24.50
2018-05-10T23:23:58.558Z,17.60
2018-05-10T23:26:27.429Z,23.07
2018-05-10T23:28:55.482Z,21.80
2018-05-10T23:31:38.411Z,24.33
2018-05-10T23:34:06.501Z,18.23
2018-05-10T23:36:34.574Z,21.83
2018-05-10T23:39:02.731Z,19.63
2018-05-10T23:41:30.781Z,19.43
2018-05-10T23:43:58.838Z,21.27
2018-05-10T23:46:26.918Z,21.97
2018-05-10T23:48:54.963Z,21.10
2018-05-10T23:51:23.066Z,19.13
2018-05-10T23:53:51.121Z,18.93
2018-05-10T23:56:19.166Z,18.67
2018-05-10T23:58:48.011Z,19.17
